createdAt,value
2018-04-02T00:00:53.640Z,996.69
2018-04-02T00:01:53.626Z,996.67
2018-04-02T00:02:53.633Z,996.67
2018-04-02T00:03:53.598Z,996.65
2018-04-02T00:04:53.616Z,996.66
2018-04-02T00:05:53.572Z,996.63
2018-04-02T00:06:53.598Z,996.65
2018-04-02T00:07:53.544Z,996.67
2018-04-02T00:08:53.562Z,996.64
2018-04-02T00:09:53.563Z,996.62
2018-04-02T00:10:53.514Z,996.60
2018-04-02T00:11:53.489Z,996.62
2018-04-02T00:12:53.505Z,996.63
2018-04-02T00:13:53.463Z,996.58
2018-04-02T00:14:53.448Z,996.55
2018-04-02T00:15:53.434Z,996.59
2018-04-02T00:16:53.425Z,996.61
2018-04-02T00:17:53.407Z,996.58
2018-04-02T00:18:53.392Z,996.57
2018-04-02T00:19:53.379Z,996.57
2018-04-02T00:20:53.374Z,996.53
2018-04-02T00:21:53.387Z,996.52
2018-04-02T00:22:53.346Z,996.48
2018-04-02T00:23:53.323Z,996.54
2018-04-02T00:24:53.320Z,996.48
2018-04-02T00:25:53.297Z,996.48
2018-04-02T00:26:53.287Z,996.48
2018-04-02T00:27:53.304Z,996.50
2018-04-02T00:28:53.263Z,996.47
2018-04-02T00:29:53.240Z,996.44
2018-04-02T00:30:53.229Z,996.45
2018-04-02T00:31:53.212Z,996.49
2018-04-02T00:32:53.197Z,996.47
2018-04-02T00:33:53.183Z,996.48
2018-04-02T00:34:53.169Z,996.48
2018-04-02T00:35:53.155Z,996.49
2018-04-02T00:36:53.140Z,996.44
2018-04-02T00:37:53.127Z,996.46
2018-04-02T00:38:53.111Z,996.43
2018-04-02T00:39:53.127Z,996.39
2018-04-02T00:40:53.095Z,996.40
2018-04-02T00:41:53.291Z,996.39
2018-04-02T00:42:53.063Z,996.37
2018-04-02T00:43:53.041Z,996.36
2018-04-02T00:44:53.049Z,996.34
2018-04-02T00:45:53.012Z,996.33
2018-04-02T00:46:53.008Z,996.28
2018-04-02T00:47:53.206Z,996.25
2018-04-02T00:48:53.030Z,996.23
2018-04-02T00:49:52.955Z,996.23
2018-04-02T00:50:52.962Z,996.23
2018-04-02T00:51:52.926Z,996.21
2018-04-02T00:52:52.911Z,996.20
2018-04-02T00:53:52.898Z,996.21
2018-04-02T00:54:52.882Z,996.22
2018-04-02T00:55:52.868Z,996.18
2018-04-02T00:56:52.854Z,996.15
2018-04-02T00:57:52.842Z,996.14
2018-04-02T00:58:52.833Z,996.16
2018-04-02T00:59:52.843Z,996.12
2018-04-02T01:00:52.812Z,996.08
2018-04-02T01:01:52.781Z,996.09
2018-04-02T01:02:52.775Z,996.09
2018-04-02T01:03:52.751Z,996.09
2018-04-02T01:04:52.737Z,996.07
2018-04-02T01:05:52.738Z,996.13
2018-04-02T01:07:52.707Z,996.12
2018-04-02T01:08:52.679Z,996.08
2018-04-02T01:09:52.694Z,996.03
2018-04-02T01:10:52.648Z,996.05
2018-04-02T01:11:52.633Z,996.04
2018-04-02T01:12:52.620Z,996.06
2018-04-02T01:13:52.604Z,996.05
2018-04-02T01:14:52.589Z,996.08
2018-04-02T01:15:52.574Z,996.04
2018-04-02T01:16:52.560Z,996.06
2018-04-02T01:17:52.546Z,996.05
2018-04-02T01:18:52.531Z,996.00
2018-04-02T01:19:52.538Z,996.01
2018-04-02T01:20:52.501Z,996.02
2018-04-02T01:21:52.507Z,996.03
2018-04-02T01:22:52.474Z,996.01
2018-04-02T01:23:52.457Z,996.05
2018-04-02T01:24:52.449Z,996.01
2018-04-02T01:25:52.443Z,995.99
2018-04-02T01:26:52.414Z,996.00
2018-04-02T01:27:52.421Z,995.97
2018-04-02T01:28:52.384Z,995.98
2018-04-02T01:29:52.378Z,995.95
2018-04-02T01:30:52.414Z,995.94
2018-04-02T01:31:52.340Z,995.94
2018-04-02T01:32:52.325Z,995.90
2018-04-02T01:33:52.311Z,995.87
2018-04-02T01:34:52.298Z,995.86
2018-04-02T01:35:52.281Z,995.83
2018-04-02T01:36:52.267Z,995.83
2018-04-02T01:37:52.292Z,995.80
2018-04-02T01:38:52.236Z,995.76
2018-04-02T01:39:52.246Z,995.75
2018-04-02T01:40:52.213Z,995.77
2018-04-02T01:41:52.411Z,995.81
2018-04-02T01:42:52.181Z,995.82
2018-04-02T01:43:52.162Z,995.80
2018-04-02T01:44:52.166Z,995.79
2018-04-02T01:45:52.133Z,995.83
2018-04-02T01:46:52.126Z,995.76
2018-04-02T01:47:52.331Z,995.77
2018-04-02T01:48:52.093Z,995.72
2018-04-02T01:49:52.074Z,995.73
2018-04-02T01:50:52.081Z,995.73
2018-04-02T01:51:52.044Z,995.71
2018-04-02T01:52:52.029Z,995.70
2018-04-02T01:53:52.014Z,995.71
2018-04-02T01:54:51.999Z,995.65
2018-04-02T01:55:51.984Z,995.66
2018-04-02T01:56:52.026Z,995.68
2018-04-02T01:57:51.956Z,995.69
2018-04-02T01:58:51.945Z,995.63
2018-04-02T01:59:51.963Z,995.66
2018-04-02T02:00:51.927Z,995.63
2018-04-02T02:01:51.896Z,995.59
2018-04-02T02:02:51.895Z,995.58
2018-04-02T02:03:51.867Z,995.57
2018-04-02T02:04:51.856Z,995.53
2018-04-02T02:05:51.838Z,995.55
2018-04-02T02:06:51.827Z,995.51
2018-04-02T02:07:51.824Z,995.52
2018-04-02T02:08:51.793Z,995.47
2018-04-02T02:09:51.816Z,995.46
2018-04-02T02:10:51.763Z,995.44
2018-04-02T02:11:51.749Z,995.41
2018-04-02T02:12:51.757Z,995.43
2018-04-02T02:13:51.724Z,995.44
2018-04-02T02:14:51.704Z,995.41
2018-04-02T02:15:51.689Z,995.44
2018-04-02T02:16:51.677Z,995.43
2018-04-02T02:17:51.667Z,995.43
2018-04-02T02:18:51.644Z,995.40
2018-04-02T02:19:51.652Z,995.39
2018-04-02T02:20:51.627Z,995.35
2018-04-02T02:21:51.647Z,995.37
2018-04-02T02:22:51.585Z,995.34
2018-04-02T02:23:51.569Z,995.37
2018-04-02T02:24:51.555Z,995.33
2018-04-02T02:25:51.544Z,995.35
2018-04-02T02:26:51.534Z,995.37
2018-04-02T02:27:51.539Z,995.33
2018-04-02T02:28:51.500Z,995.35
2018-04-02T02:29:51.480Z,995.34
2018-04-02T02:30:51.475Z,995.33
2018-04-02T02:31:51.450Z,995.26
2018-04-02T02:32:51.436Z,995.24
2018-04-02T02:33:51.426Z,995.23
2018-04-02T02:34:51.404Z,995.24
2018-04-02T02:35:51.390Z,995.21
2018-04-02T02:36:51.375Z,995.22
2018-04-02T02:37:51.361Z,995.14
2018-04-02T02:38:51.350Z,995.19
2018-04-02T02:39:51.336Z,995.15
2018-04-02T02:40:51.339Z,995.20
2018-04-02T02:41:51.355Z,995.17
2018-04-02T02:42:51.301Z,995.16
2018-04-02T02:43:51.271Z,995.15
2018-04-02T02:44:51.291Z,995.13
2018-04-02T02:45:51.242Z,995.13
2018-04-02T02:46:51.226Z,995.11
2018-04-02T02:47:51.218Z,995.11
2018-04-02T02:48:51.214Z,995.11
2018-04-02T02:49:51.181Z,995.09
2018-04-02T02:50:51.201Z,995.07
2018-04-02T02:51:51.151Z,995.06
2018-04-02T02:52:51.144Z,995.08
2018-04-02T02:53:51.132Z,995.05
2018-04-02T02:54:51.112Z,995.04
2018-04-02T02:55:51.092Z,995.04
2018-04-02T02:56:51.082Z,995.01
2018-04-02T02:57:51.065Z,995.03
2018-04-02T02:58:51.048Z,995.01
2018-04-02T02:59:51.034Z,995.01
2018-04-02T03:00:51.046Z,994.99
2018-04-02T03:01:51.010Z,994.96
2018-04-02T03:02:51.015Z,994.95
2018-04-02T03:03:50.976Z,994.96
2018-04-02T03:04:50.966Z,994.94
2018-04-02T03:05:50.946Z,994.94
2018-04-02T03:06:50.930Z,994.92
2018-04-02T03:07:50.956Z,994.88
2018-04-02T03:08:50.912Z,994.86
2018-04-02T03:09:50.887Z,994.86
2018-04-02T03:10:50.878Z,994.85
2018-04-02T03:11:50.858Z,994.86
2018-04-02T03:12:50.843Z,994.85
2018-04-02T03:13:50.829Z,994.84
2018-04-02T03:14:50.813Z,994.84
2018-04-02T03:15:50.800Z,994.81
2018-04-02T03:16:50.789Z,994.84
2018-04-02T03:17:50.770Z,994.82
2018-04-02T03:18:50.755Z,994.81
2018-04-02T03:19:50.741Z,994.80
2018-04-02T03:20:50.745Z,994.83
2018-04-02T03:21:50.718Z,994.80
2018-04-02T03:22:50.710Z,994.79
2018-04-02T03:23:50.683Z,994.78
2018-04-02T03:24:50.727Z,994.74
2018-04-02T03:25:50.656Z,994.73
2018-04-02T03:26:50.647Z,994.70
2018-04-02T03:27:50.628Z,994.66
2018-04-02T03:28:50.624Z,994.67
2018-04-02T03:29:50.597Z,994.67
2018-04-02T03:30:50.612Z,994.64
2018-04-02T03:31:50.568Z,994.67
2018-04-02T03:32:50.553Z,994.64
2018-04-02T03:33:50.539Z,994.61
2018-04-02T03:34:50.523Z,994.62
2018-04-02T03:35:50.510Z,994.58
2018-04-02T03:36:50.495Z,994.59
2018-04-02T03:37:50.482Z,994.59
2018-04-02T03:38:50.467Z,994.60
2018-04-02T03:39:50.470Z,994.58
2018-04-02T03:40:50.458Z,994.55
2018-04-02T03:41:50.424Z,994.55
2018-04-02T03:42:50.424Z,994.55
2018-04-02T03:43:50.395Z,994.53
2018-04-02T03:44:50.381Z,994.53
2018-04-02T03:45:50.367Z,994.54
2018-04-02T03:46:50.375Z,994.50
2018-04-02T03:47:50.338Z,994.53
2018-04-02T03:48:50.340Z,994.47
2018-04-02T03:49:50.313Z,994.47
2018-04-02T03:50:50.295Z,994.43
2018-04-02T03:51:50.280Z,994.42
2018-04-02T03:52:50.266Z,994.39
2018-04-02T03:53:50.252Z,994.38
2018-04-02T03:54:50.237Z,994.37
2018-04-02T03:55:50.223Z,994.31
2018-04-02T03:56:50.208Z,994.29
2018-04-02T03:57:50.198Z,994.34
2018-04-02T03:58:50.188Z,994.34
2018-04-02T03:59:50.168Z,994.35
2018-04-02T04:00:50.173Z,994.31
2018-04-02T04:01:50.142Z,994.31
2018-04-02T04:02:50.162Z,994.28
2018-04-02T04:03:50.110Z,994.25
2018-04-02T04:04:50.112Z,994.23
2018-04-02T04:05:50.090Z,994.21
2018-04-02T04:06:50.074Z,994.19
2018-04-02T04:07:50.100Z,994.21
2018-04-02T04:08:50.038Z,994.16
2018-04-02T04:09:50.022Z,994.14
2018-04-02T04:10:50.027Z,994.16
2018-04-02T04:11:49.993Z,994.14
2018-04-02T04:12:49.979Z,994.12
2018-04-02T04:13:49.966Z,994.10
2018-04-02T04:14:49.950Z,994.14
2018-04-02T04:15:49.936Z,994.10
2018-04-02T04:16:49.922Z,994.09
2018-04-02T04:17:49.909Z,994.11
2018-04-02T04:18:49.902Z,994.09
2018-04-02T04:19:49.913Z,994.10
2018-04-02T04:20:49.870Z,994.12
2018-04-02T04:21:49.850Z,994.10
2018-04-02T04:22:49.837Z,994.10
2018-04-02T04:23:49.821Z,994.10
2018-04-02T04:24:49.818Z,994.10
2018-04-02T04:25:49.826Z,994.06
2018-04-02T04:26:49.786Z,994.04
2018-04-02T04:27:49.765Z,994.08
2018-04-02T04:28:49.760Z,994.05
2018-04-02T04:29:49.740Z,994.04
2018-04-02T04:30:49.722Z,994.02
2018-04-02T04:31:49.709Z,994.05
2018-04-02T04:32:49.694Z,994.04
2018-04-02T04:33:49.679Z,994.04
2018-04-02T04:34:49.664Z,994.05
2018-04-02T04:35:49.653Z,994.05
2018-04-02T04:36:49.637Z,994.06
2018-04-02T04:37:49.631Z,994.05
2018-04-02T04:38:49.632Z,994.04
2018-04-02T04:39:49.594Z,994.00
2018-04-02T04:40:49.610Z,994.02
2018-04-02T04:41:49.567Z,994.00
2018-04-02T04:42:49.591Z,994.04
2018-04-02T04:43:49.538Z,994.02
2018-04-02T04:44:49.528Z,993.99
2018-04-02T04:45:49.736Z,994.02
2018-04-02T04:46:49.536Z,994.00
2018-04-02T04:47:49.487Z,993.96
2018-04-02T04:48:49.541Z,993.97
2018-04-02T04:49:49.455Z,993.98
2018-04-02T04:50:49.441Z,993.97
2018-04-02T04:51:49.427Z,993.94
2018-04-02T04:52:49.434Z,993.97
2018-04-02T04:53:49.419Z,993.92
2018-04-02T04:54:49.421Z,993.91
2018-04-02T04:55:49.373Z,993.89
2018-04-02T04:56:49.594Z,993.89
2018-04-02T04:57:49.345Z,993.88
2018-04-02T04:58:49.330Z,993.87
2018-04-02T04:59:49.344Z,993.86
2018-04-02T05:00:49.304Z,993.89
2018-04-02T05:01:49.290Z,993.84
2018-04-02T05:02:49.275Z,993.85
2018-04-02T05:03:49.261Z,993.85
2018-04-02T05:04:49.248Z,993.82
2018-04-02T05:05:49.274Z,993.87
2018-04-02T05:06:49.221Z,993.85
2018-04-02T05:07:49.453Z,993.82
2018-04-02T05:08:49.211Z,993.82
2018-04-02T05:09:49.184Z,993.81
2018-04-02T05:10:49.166Z,993.81
2018-04-02T05:11:49.152Z,993.83
2018-04-02T05:12:49.145Z,993.78
2018-04-02T05:13:49.126Z,993.82
2018-04-02T05:14:49.113Z,993.83
2018-04-02T05:15:49.106Z,993.83
2018-04-02T05:16:49.085Z,993.79
2018-04-02T05:17:49.119Z,993.81
2018-04-02T05:18:49.058Z,993.77
2018-04-02T05:19:49.107Z,993.75
2018-04-02T05:20:49.031Z,993.75
2018-04-02T05:21:49.019Z,993.74
2018-04-02T05:22:49.262Z,993.74
2018-04-02T05:23:48.991Z,993.68
2018-04-02T05:24:48.979Z,993.70
2018-04-02T05:25:48.976Z,993.72
2018-04-02T05:26:48.951Z,993.71
2018-04-02T05:27:48.938Z,993.67
2018-04-02T05:28:48.925Z,993.67
2018-04-02T05:29:48.912Z,993.68
2018-04-02T05:30:48.898Z,993.66
2018-04-02T05:31:48.888Z,993.64
2018-04-02T05:32:48.872Z,993.66
2018-04-02T05:33:48.951Z,993.65
2018-04-02T05:34:48.845Z,993.64
2018-04-02T05:35:48.838Z,993.64
2018-04-02T05:36:49.023Z,993.62
2018-04-02T05:37:48.808Z,993.62
2018-04-02T05:38:48.797Z,993.60
2018-04-02T05:40:48.768Z,993.62
2018-04-02T05:41:48.755Z,993.61
2018-04-02T05:42:48.774Z,993.60
2018-04-02T05:43:48.729Z,993.60
2018-04-02T05:44:48.720Z,993.58
2018-04-02T05:45:48.704Z,993.57
2018-04-02T05:46:48.690Z,993.52
2018-04-02T05:47:48.678Z,993.51
2018-04-02T05:48:48.664Z,993.46
2018-04-02T05:49:48.651Z,993.50
2018-04-02T05:50:48.662Z,993.49
2018-04-02T05:51:48.626Z,993.49
2018-04-02T05:52:48.613Z,993.52
2018-04-02T05:53:48.694Z,993.52
2018-04-02T05:54:48.586Z,993.53
2018-04-02T05:55:48.575Z,993.50
2018-04-02T05:56:48.678Z,993.52
2018-04-02T05:57:48.549Z,993.52
2018-04-02T05:58:48.535Z,993.55
2018-04-02T05:59:48.566Z,993.54
2018-04-02T06:00:48.519Z,993.53
2018-04-02T06:01:48.497Z,993.48
2018-04-02T06:02:48.487Z,993.49
2018-04-02T06:03:48.472Z,993.42
2018-04-02T06:04:48.460Z,993.41
2018-04-02T06:05:48.447Z,993.43
2018-04-02T06:06:48.434Z,993.43
2018-04-02T06:07:48.424Z,993.41
2018-04-02T06:08:48.614Z,993.39
2018-04-02T06:09:48.397Z,993.46
2018-04-02T06:10:48.383Z,993.46
2018-04-02T06:11:48.417Z,993.44
2018-04-02T06:12:48.358Z,993.43
2018-04-02T06:13:48.349Z,993.45
2018-04-02T06:14:48.377Z,993.46
2018-04-02T06:15:48.321Z,993.42
2018-04-02T06:16:48.308Z,993.44
2018-04-02T06:17:48.330Z,993.43
2018-04-02T06:18:48.283Z,993.43
2018-04-02T06:19:48.270Z,993.45
2018-04-02T06:20:48.270Z,993.43
2018-04-02T06:21:48.246Z,993.42
2018-04-02T06:22:48.238Z,993.42
2018-04-02T06:23:48.221Z,993.43
2018-04-02T06:24:48.211Z,993.42
2018-04-02T06:25:48.270Z,993.43
2018-04-02T06:26:48.184Z,993.44
2018-04-02T06:27:48.172Z,993.40
2018-04-02T06:28:48.234Z,993.41
2018-04-02T06:29:48.148Z,993.40
2018-04-02T06:30:48.139Z,993.37
2018-04-02T06:31:48.326Z,993.35
2018-04-02T06:32:48.111Z,993.36
2018-04-02T06:33:48.099Z,993.36
2018-04-02T06:34:48.130Z,993.33
2018-04-02T06:35:48.074Z,993.30
2018-04-02T06:36:48.062Z,993.32
2018-04-02T06:37:48.063Z,993.31
2018-04-02T06:38:48.038Z,993.31
2018-04-02T06:39:48.025Z,993.28
2018-04-02T06:40:48.014Z,993.23
2018-04-02T06:41:48.002Z,993.26
2018-04-02T06:42:47.989Z,993.23
2018-04-02T06:43:47.981Z,993.24
2018-04-02T06:44:47.969Z,993.22
2018-04-02T06:45:48.157Z,993.23
2018-04-02T06:46:47.942Z,993.21
2018-04-02T06:47:47.929Z,993.18
2018-04-02T06:49:47.909Z,993.10
2018-04-02T06:50:47.894Z,993.11
2018-04-02T06:51:47.928Z,993.10
2018-04-02T06:52:47.875Z,993.05
2018-04-02T06:53:47.860Z,993.09
2018-04-02T06:54:47.855Z,993.07
2018-04-02T06:55:47.836Z,993.03
2018-04-02T06:56:47.824Z,993.02
2018-04-02T06:57:47.812Z,993.01
2018-04-02T06:58:47.800Z,993.01
2018-04-02T06:59:47.788Z,992.99
2018-04-02T07:00:47.777Z,992.96
2018-04-02T07:01:47.766Z,992.97
2018-04-02T07:02:47.957Z,992.96
2018-04-02T07:03:47.749Z,992.93
2018-04-02T07:04:47.935Z,992.93
2018-04-02T07:05:47.721Z,992.93
2018-04-02T07:06:47.708Z,992.93
2018-04-02T07:07:47.740Z,992.89
2018-04-02T07:08:47.686Z,992.91
2018-04-02T07:09:47.677Z,992.92
2018-04-02T07:10:47.709Z,992.91
2018-04-02T07:11:47.652Z,992.89
2018-04-02T07:12:47.641Z,992.85
2018-04-02T07:13:47.631Z,992.89
2018-04-02T07:14:47.618Z,992.89
2018-04-02T07:15:47.608Z,992.89
2018-04-02T07:16:47.596Z,992.88
2018-04-02T07:17:47.588Z,992.86
2018-04-02T07:18:47.785Z,992.83
2018-04-02T07:19:47.563Z,992.87
2018-04-02T07:20:47.552Z,992.84
2018-04-02T07:21:47.617Z,992.83
2018-04-02T07:22:47.530Z,992.81
2018-04-02T07:23:47.519Z,992.82
2018-04-02T07:24:47.547Z,992.84
2018-04-02T07:25:47.505Z,992.83
2018-04-02T07:26:47.487Z,992.84
2018-04-02T07:27:47.475Z,992.86
2018-04-02T07:28:47.464Z,992.86
2018-04-02T07:29:47.456Z,992.86
2018-04-02T07:30:47.442Z,992.85
2018-04-02T07:31:47.433Z,992.85
2018-04-02T07:32:47.420Z,992.88
2018-04-02T07:33:47.410Z,992.85
2018-04-02T07:34:47.401Z,992.84
2018-04-02T07:35:47.432Z,992.83
2018-04-02T07:36:47.377Z,992.81
2018-04-02T07:37:47.372Z,992.79
2018-04-02T07:38:47.559Z,992.78
2018-04-02T07:39:47.345Z,992.76
2018-04-02T07:40:47.334Z,992.73
2018-04-02T07:41:47.351Z,992.76
2018-04-02T07:42:47.313Z,992.79
2018-04-02T07:43:47.303Z,992.76
2018-04-02T07:44:47.293Z,992.77
2018-04-02T07:45:47.283Z,992.76
2018-04-02T07:46:47.272Z,992.79
2018-04-02T07:47:47.260Z,992.78
2018-04-02T07:48:47.254Z,992.72
2018-04-02T07:49:47.442Z,992.76
2018-04-02T07:50:47.227Z,992.72
2018-04-02T07:51:47.218Z,992.76
2018-04-02T07:53:47.200Z,992.72
2018-04-02T07:54:47.186Z,992.70
2018-04-02T07:55:47.206Z,992.66
2018-04-02T07:56:47.171Z,992.66
2018-04-02T07:57:47.195Z,992.69
2018-04-02T07:58:47.145Z,992.66
2018-04-02T07:59:47.138Z,992.65
2018-04-02T08:00:47.127Z,992.63
2018-04-02T08:01:47.115Z,992.64
2018-04-02T08:02:47.144Z,992.61
2018-04-02T08:03:47.157Z,992.67
2018-04-02T08:04:47.120Z,992.61
2018-04-02T08:05:47.075Z,992.60
2018-04-02T08:06:47.067Z,992.62
2018-04-02T08:07:47.105Z,992.58
2018-04-02T08:08:47.048Z,992.58
2018-04-02T08:09:47.039Z,992.56
2018-04-02T08:10:47.053Z,992.56
2018-04-02T08:11:47.017Z,992.55
2018-04-02T08:12:47.008Z,992.52
2018-04-02T08:13:46.999Z,992.52
2018-04-02T08:14:46.993Z,992.55
2018-04-02T08:15:46.988Z,992.53
2018-04-02T08:16:46.971Z,992.52
2018-04-02T08:17:46.979Z,992.52
2018-04-02T08:18:47.058Z,992.53
2018-04-02T08:19:46.944Z,992.50
2018-04-02T08:20:46.934Z,992.53
2018-04-02T08:21:47.129Z,992.53
2018-04-02T08:22:46.915Z,992.49
2018-04-02T08:23:46.906Z,992.52
2018-04-02T08:24:46.942Z,992.54
2018-04-02T08:25:46.888Z,992.54
2018-04-02T08:26:46.882Z,992.55
2018-04-02T08:27:46.883Z,992.53
2018-04-02T08:28:46.860Z,992.57
2018-04-02T08:29:46.850Z,992.52
2018-04-02T08:30:46.848Z,992.56
2018-04-02T08:31:46.831Z,992.53
2018-04-02T08:32:46.827Z,992.53
2018-04-02T08:33:46.817Z,992.53
2018-04-02T08:34:46.802Z,992.54
2018-04-02T08:35:46.872Z,992.53
2018-04-02T08:36:46.786Z,992.48
2018-04-02T08:37:46.775Z,992.49
2018-04-02T08:38:46.869Z,992.51
2018-04-02T08:39:46.756Z,992.44
2018-04-02T08:40:46.747Z,992.46
2018-04-02T08:41:46.738Z,992.41
2018-04-02T08:42:46.729Z,992.42
2018-04-02T08:43:46.719Z,992.44
2018-04-02T08:44:46.710Z,992.44
2018-04-02T08:45:46.701Z,992.46
2018-04-02T08:46:46.691Z,992.38
2018-04-02T08:47:46.682Z,992.41
2018-04-02T08:48:46.677Z,992.37
2018-04-02T08:50:46.655Z,992.36
2018-04-02T08:51:46.645Z,992.39
2018-04-02T08:52:46.679Z,992.36
2018-04-02T08:53:46.627Z,992.31
2018-04-02T08:54:46.619Z,992.33
2018-04-02T08:55:46.613Z,992.30
2018-04-02T08:56:46.601Z,992.23
2018-04-02T08:57:46.591Z,992.27
2018-04-02T08:58:46.580Z,992.25
2018-04-02T08:59:46.574Z,992.20
2018-04-02T09:00:46.562Z,992.21
2018-04-02T09:01:46.553Z,992.21
2018-04-02T09:02:46.544Z,992.17
2018-04-02T09:03:46.607Z,992.16
2018-04-02T09:04:46.526Z,992.12
2018-04-02T09:05:46.720Z,992.12
2018-04-02T09:06:46.507Z,992.05
2018-04-02T09:07:46.502Z,992.17
2018-04-02T09:08:46.515Z,992.04
2018-04-02T09:09:46.482Z,992.08
2018-04-02T09:10:46.473Z,992.01
2018-04-02T09:11:46.465Z,991.99
2018-04-02T09:12:46.456Z,991.99
2018-04-02T09:13:46.672Z,992.02
2018-04-02T09:14:46.440Z,991.99
2018-04-02T09:15:46.432Z,991.98
2018-04-02T09:16:46.495Z,991.95
2018-04-02T09:17:46.416Z,991.91
2018-04-02T09:18:46.407Z,991.90
2018-04-02T09:19:46.445Z,991.79
2018-04-02T09:20:46.391Z,991.83
2018-04-02T09:21:46.384Z,991.81
2018-04-02T09:22:46.374Z,991.82
2018-04-02T09:23:46.367Z,991.77
2018-04-02T09:24:46.370Z,991.70
2018-04-02T09:25:46.349Z,991.72
2018-04-02T09:26:46.341Z,991.70
2018-04-02T09:27:46.332Z,991.69
2018-04-02T09:28:46.326Z,991.68
2018-04-02T09:29:46.321Z,991.66
2018-04-02T09:30:46.383Z,991.65
2018-04-02T09:31:46.299Z,991.75
2018-04-02T09:32:46.293Z,991.71
2018-04-02T09:33:46.323Z,991.70
2018-04-02T09:34:46.274Z,991.69
2018-04-02T09:35:46.270Z,991.70
2018-04-02T09:36:46.258Z,991.65
2018-04-02T09:37:46.254Z,991.63
2018-04-02T09:38:46.248Z,991.56
2018-04-02T09:39:46.235Z,991.54
2018-04-02T09:40:46.228Z,991.53
2018-04-02T09:41:46.318Z,991.54
2018-04-02T09:42:46.213Z,991.52
2018-04-02T09:43:46.206Z,991.48
2018-04-02T09:44:46.402Z,991.46
2018-04-02T09:45:46.193Z,991.45
2018-04-02T09:46:46.188Z,991.41
2018-04-02T09:47:46.418Z,991.47
2018-04-02T09:48:46.172Z,991.50
2018-04-02T09:49:46.165Z,991.47
2018-04-02T09:50:46.160Z,991.42
2018-04-02T09:51:46.150Z,991.45
2018-04-02T09:52:46.144Z,991.44
2018-04-02T09:53:46.138Z,991.44
2018-04-02T09:54:46.130Z,991.45
2018-04-02T09:55:46.218Z,991.44
2018-04-02T09:56:46.115Z,991.40
2018-04-02T09:57:46.109Z,991.38
2018-04-02T09:58:46.166Z,991.38
2018-04-02T09:59:46.093Z,991.51
2018-04-02T10:00:46.089Z,991.33
2018-04-02T10:01:46.103Z,991.30
2018-04-02T10:02:46.072Z,991.29
2018-04-02T10:03:46.065Z,991.29
2018-04-02T10:04:46.146Z,991.24
2018-04-02T10:05:46.071Z,991.27
2018-04-02T10:06:46.043Z,991.21
2018-04-02T10:07:46.115Z,991.22
2018-04-02T10:08:46.029Z,991.23
2018-04-02T10:09:46.024Z,991.20
2018-04-02T10:10:46.048Z,991.24
2018-04-02T10:11:46.007Z,991.20
2018-04-02T10:12:46.001Z,991.23
2018-04-02T10:13:46.201Z,991.18
2018-04-02T10:14:45.986Z,991.08
2018-04-02T10:15:45.980Z,991.10
2018-04-02T10:16:45.996Z,991.14
2018-04-02T10:17:45.967Z,991.11
2018-04-02T10:18:46.191Z,991.10
2018-04-02T10:19:45.954Z,991.06
2018-04-02T10:20:45.985Z,991.07
2018-04-02T10:21:46.145Z,991.08
2018-04-02T10:22:45.935Z,991.07
2018-04-02T10:23:45.941Z,991.05
2018-04-02T10:24:45.980Z,991.02
2018-04-02T10:25:45.920Z,991.06
2018-04-02T10:26:45.911Z,991.01
2018-04-02T10:27:45.904Z,991.05
2018-04-02T10:28:45.900Z,991.01
2018-04-02T10:29:45.963Z,990.92
2018-04-02T10:30:45.959Z,990.96
2018-04-02T10:31:45.881Z,990.95
2018-04-02T10:32:45.948Z,990.95
2018-04-02T10:33:45.879Z,990.94
2018-04-02T10:34:45.865Z,990.90
2018-04-02T10:35:45.920Z,990.92
2018-04-02T10:36:45.852Z,990.90
2018-04-02T10:37:45.845Z,990.94
2018-04-02T10:38:45.852Z,990.88
2018-04-02T10:39:45.833Z,990.98
2018-04-02T10:40:45.827Z,990.80
2018-04-02T10:41:45.821Z,990.92
2018-04-02T10:42:45.813Z,991.03
2018-04-02T10:43:45.807Z,990.85
2018-04-02T10:44:45.801Z,990.82
2018-04-02T10:45:45.795Z,990.84
2018-04-02T10:46:45.990Z,990.81
2018-04-02T10:47:45.780Z,990.77
2018-04-02T10:48:45.778Z,990.76
2018-04-02T10:49:45.974Z,990.81
2018-04-02T10:50:45.760Z,990.78
2018-04-02T10:51:45.753Z,990.73
2018-04-02T10:52:45.748Z,990.75
2018-04-02T10:53:45.739Z,990.76
2018-04-02T10:54:45.732Z,990.73
2018-04-02T10:55:45.725Z,990.78
2018-04-02T10:56:45.719Z,990.81
2018-04-02T10:57:45.921Z,990.65
2018-04-02T10:58:45.703Z,990.69
2018-04-02T10:59:45.730Z,990.67
2018-04-02T11:00:45.761Z,990.67
2018-04-02T11:01:45.681Z,990.59
2018-04-02T11:02:45.676Z,990.54
2018-04-02T11:03:45.712Z,990.58
2018-04-02T11:04:45.660Z,990.54
2018-04-02T11:05:45.695Z,990.54
2018-04-02T11:06:45.644Z,990.50
2018-04-02T11:07:45.637Z,990.48
2018-04-02T11:08:45.630Z,990.43
2018-04-02T11:09:45.623Z,990.41
2018-04-02T11:10:45.616Z,990.41
2018-04-02T11:11:45.610Z,990.38
2018-04-02T11:12:45.605Z,990.34
2018-04-02T11:13:45.674Z,990.37
2018-04-02T11:14:45.588Z,990.32
2018-04-02T11:15:45.580Z,990.36
2018-04-02T11:16:45.586Z,990.30
2018-04-02T11:17:45.571Z,990.28
2018-04-02T11:18:45.560Z,990.23
2018-04-02T11:19:45.559Z,990.24
2018-04-02T11:20:45.553Z,990.24
2018-04-02T11:21:45.543Z,990.21
2018-04-02T11:22:45.533Z,990.23
2018-04-02T11:23:45.549Z,990.17
2018-04-02T11:24:45.519Z,990.20
2018-04-02T11:25:45.512Z,990.13
2018-04-02T11:26:45.507Z,990.12
2018-04-02T11:27:45.547Z,990.16
2018-04-02T11:28:45.489Z,990.14
2018-04-02T11:29:45.482Z,990.11
2018-04-02T11:30:45.682Z,990.08
2018-04-02T11:31:45.477Z,990.08
2018-04-02T11:32:45.460Z,990.08
2018-04-02T11:33:45.469Z,990.05
2018-04-02T11:34:45.444Z,990.06
2018-04-02T11:35:45.437Z,990.00
2018-04-02T11:36:45.429Z,990.01
2018-04-02T11:37:45.423Z,989.96
2018-04-02T11:38:45.617Z,989.95
2018-04-02T11:39:45.409Z,989.91
2018-04-02T11:40:45.400Z,989.90
2018-04-02T11:41:45.595Z,989.89
2018-04-02T11:42:45.383Z,989.88
2018-04-02T11:43:45.401Z,989.90
2018-04-02T11:44:45.414Z,989.90
2018-04-02T11:45:45.359Z,989.94
2018-04-02T11:46:45.352Z,989.88
2018-04-02T11:47:45.344Z,989.89
2018-04-02T11:48:45.336Z,989.93
2018-04-02T11:49:45.328Z,989.91
2018-04-02T11:50:45.321Z,989.91
2018-04-02T11:51:45.525Z,989.85
2018-04-02T11:52:45.506Z,989.89
2018-04-02T11:53:45.295Z,989.87
2018-04-02T11:54:45.286Z,989.82
2018-04-02T11:55:45.319Z,989.77
2018-04-02T11:56:45.270Z,989.84
2018-04-02T11:57:45.261Z,989.83
2018-04-02T11:58:45.281Z,989.76
2018-04-02T11:59:45.247Z,989.77
2018-04-02T12:00:45.236Z,989.74
2018-04-02T12:01:45.227Z,989.72
2018-04-02T12:02:45.218Z,989.69
2018-04-02T12:03:45.211Z,989.67
2018-04-02T12:04:45.202Z,989.63
2018-04-02T12:05:45.193Z,989.65
2018-04-02T12:06:45.184Z,989.60
2018-04-02T12:07:45.183Z,989.58
2018-04-02T12:08:45.172Z,989.58
2018-04-02T12:09:45.160Z,989.59
2018-04-02T12:10:45.150Z,989.56
2018-04-02T12:11:45.143Z,989.57
2018-04-02T12:12:45.134Z,989.52
2018-04-02T12:13:45.127Z,989.46
2018-04-02T12:14:45.119Z,989.40
2018-04-02T12:15:45.367Z,989.43
2018-04-02T12:16:45.102Z,989.43
2018-04-02T12:17:45.093Z,989.39
2018-04-02T12:18:45.291Z,989.38
2018-04-02T12:19:45.077Z,989.35
2018-04-02T12:20:45.069Z,989.30
2018-04-02T12:21:45.084Z,989.32
2018-04-02T12:22:45.053Z,989.27
2018-04-02T12:23:45.045Z,989.31
2018-04-02T12:24:45.038Z,989.23
2018-04-02T12:25:45.031Z,989.18
2018-04-02T12:26:45.241Z,989.23
2018-04-02T12:27:45.019Z,989.21
2018-04-02T12:28:45.012Z,989.23
2018-04-02T12:29:45.205Z,989.20
2018-04-02T12:30:44.996Z,989.19
2018-04-02T12:31:44.988Z,989.18
2018-04-02T12:32:45.029Z,989.18
2018-04-02T12:33:44.976Z,989.09